METAR Data
IDs: Format: Raw Decoded Include TAF

Data at: 2258 UTC 30 Jun 2022

METAR for:KGDP (Guadalupe Pass, TX, US)
Text:KGDP 302251Z AUTO 07006KT 9SM BKN095 31/07 A3016 RMK AO2 SLP119 T03060072 $
Temperature: 30.6°C ( 87°F)
Dewpoint: 7.2°C ( 45°F) [RH = 23%]
Pressure (altimeter):30.16 inches Hg (1021.4 mb) [Sea level pressure: 1011.9 mb]
Winds:from the ENE (70 degrees) at 7 MPH (6 knots; 3.1 m/s)
Visibility: 9 sm ( 14 km)
Ceiling:9500 feet AGL
Clouds: broken clouds at 9500 feet AGL
QC Flag:automated observation with no human augmentation; SOME DATA ABOVE MAY BE INACCURATE!!!"$" is an indication the sensor requires maintenance.
Text:KGDP 302151Z AUTO 36004KT 9SM CLR 30/08 A3018 RMK AO2 SLP128 T03000083 $
Temperature: 30.0°C ( 86°F)
Dewpoint: 8.3°C ( 47°F) [RH = 26%]
Pressure (altimeter):30.18 inches Hg (1022.1 mb) [Sea level pressure: 1012.8 mb]
Winds:from the N (360 degrees) at 5 MPH (4 knots; 2.1 m/s)
Visibility: 9 sm ( 14 km)
Ceiling:at least 12,000 feet AGL
Clouds:sky clear below 12,000 feet AGL
QC Flag:automated observation with no human augmentation; SOME DATA ABOVE MAY BE INACCURATE!!!"$" is an indication the sensor requires maintenance.
Text:KGDP 302051Z AUTO VRB04KT 9SM SCT090 29/10 A3020 RMK AO2 SLP136 T02940100 58018 $
Temperature: 29.4°C ( 85°F)
Dewpoint: 10.0°C ( 50°F) [RH = 30%]
Pressure (altimeter):30.20 inches Hg (1022.8 mb) [Sea level pressure: 1013.6 mb]
Winds:variable direction winds at 5 MPH (4 knots; 2.1 m/s)
Visibility: 9 sm ( 14 km)
Ceiling:at least 12,000 feet AGL
Clouds: scattered clouds at 9000 feet AGL
QC Flag:automated observation with no human augmentation; SOME DATA ABOVE MAY BE INACCURATE!!!"$" is an indication the sensor requires maintenance.
Text:KGDP 301951Z AUTO 26005KT 9SM CLR 28/09 A3022 RMK AO2 SLP144 T02830094 $
Temperature: 28.3°C ( 83°F)
Dewpoint: 9.4°C ( 49°F) [RH = 31%]
Pressure (altimeter):30.22 inches Hg (1023.5 mb) [Sea level pressure: 1014.4 mb]
Winds:from the W (260 degrees) at 6 MPH (5 knots; 2.6 m/s)
Visibility: 9 sm ( 14 km)
Ceiling:at least 12,000 feet AGL
Clouds:sky clear below 12,000 feet AGL
QC Flag:automated observation with no human augmentation; SOME DATA ABOVE MAY BE INACCURATE!!!"$" is an indication the sensor requires maintenance.
Text:KGDP 301851Z AUTO VRB03KT 9SM CLR 27/10 A3025 RMK AO2 SLP154 T02720100 $
Temperature: 27.2°C ( 81°F)
Dewpoint: 10.0°C ( 50°F) [RH = 34%]
Pressure (altimeter):30.25 inches Hg (1024.5 mb) [Sea level pressure: 1015.4 mb]
Winds:variable direction winds at 3 MPH (3 knots; 1.5 m/s)
Visibility: 9 sm ( 14 km)
Ceiling:at least 12,000 feet AGL
Clouds:sky clear below 12,000 feet AGL
QC Flag:automated observation with no human augmentation; SOME DATA ABOVE MAY BE INACCURATE!!!"$" is an indication the sensor requires maintenance.
Text:KGDP 301751Z AUTO 24011KT 9SM CLR 28/13 A3026 RMK AO2 SLP159 T02780133 10283 20200 58007 $
Temperature: 27.8°C ( 82°F)
Dewpoint: 13.3°C ( 56°F) [RH = 41%]
Pressure (altimeter):30.26 inches Hg (1024.8 mb) [Sea level pressure: 1015.9 mb]
Winds:from the WSW (240 degrees) at 13 MPH (11 knots; 5.7 m/s)
Visibility: 9 sm ( 14 km)
Ceiling:at least 12,000 feet AGL
Clouds:sky clear below 12,000 feet AGL
QC Flag:automated observation with no human augmentation; SOME DATA ABOVE MAY BE INACCURATE!!!"$" is an indication the sensor requires maintenance.
Text:KGDP 301651Z AUTO 25011KT 230V290 9SM CLR 27/14 A3027 RMK AO2 SLP164 T02720144 $
Temperature: 27.2°C ( 81°F)
Dewpoint: 14.4°C ( 58°F) [RH = 45%]
Pressure (altimeter):30.27 inches Hg (1025.1 mb) [Sea level pressure: 1016.4 mb]
Winds:from the WSW (250 degrees) at 13 MPH (11 knots; 5.7 m/s)
Visibility: 9 sm ( 14 km)
Ceiling:at least 12,000 feet AGL
Clouds:sky clear below 12,000 feet AGL
QC Flag:automated observation with no human augmentation; SOME DATA ABOVE MAY BE INACCURATE!!!"$" is an indication the sensor requires maintenance.
Text:KGDP 301551Z AUTO 23015KT 9SM CLR 26/14 A3028 RMK AO2 SLP167 T02560139 $
Temperature: 25.6°C ( 78°F)
Dewpoint: 13.9°C ( 57°F) [RH = 48%]
Pressure (altimeter):30.28 inches Hg (1025.5 mb) [Sea level pressure: 1016.7 mb]
Winds:from the SW (230 degrees) at 17 MPH (15 knots; 7.7 m/s)
Visibility: 9 sm ( 14 km)
Ceiling:at least 12,000 feet AGL
Clouds:sky clear below 12,000 feet AGL
QC Flag:automated observation with no human augmentation; SOME DATA ABOVE MAY BE INACCURATE!!!"$" is an indication the sensor requires maintenance.
Text:KGDP 301451Z AUTO 24012KT 8SM CLR 24/14 A3029 RMK AO2 SLP172 T02390139 53001 $
Temperature: 23.9°C ( 75°F)
Dewpoint: 13.9°C ( 57°F) [RH = 54%]
Pressure (altimeter):30.29 inches Hg (1025.8 mb) [Sea level pressure: 1017.2 mb]
Winds:from the WSW (240 degrees) at 14 MPH (12 knots; 6.2 m/s)
Visibility: 8 sm ( 13 km)
Ceiling:at least 12,000 feet AGL
Clouds:sky clear below 12,000 feet AGL
QC Flag:automated observation with no human augmentation; SOME DATA ABOVE MAY BE INACCURATE!!!"$" is an indication the sensor requires maintenance.
Text:KGDP 301351Z AUTO 26009KT 8SM CLR 23/13 A3028 RMK AO2 SLP170 T02280133 $
Temperature: 22.8°C ( 73°F)
Dewpoint: 13.3°C ( 56°F) [RH = 55%]
Pressure (altimeter):30.28 inches Hg (1025.5 mb) [Sea level pressure: 1017.0 mb]
Winds:from the W (260 degrees) at 10 MPH (9 knots; 4.6 m/s)
Visibility: 8 sm ( 13 km)
Ceiling:at least 12,000 feet AGL
Clouds:sky clear below 12,000 feet AGL
QC Flag:automated observation with no human augmentation; SOME DATA ABOVE MAY BE INACCURATE!!!"$" is an indication the sensor requires maintenance.
Text:KGDP 301251Z AUTO 25007KT 8SM SCT080 21/13 A3029 RMK AO2 SLP173 T02060128 $
Temperature: 20.6°C ( 69°F)
Dewpoint: 12.8°C ( 55°F) [RH = 61%]
Pressure (altimeter):30.29 inches Hg (1025.8 mb) [Sea level pressure: 1017.3 mb]
Winds:from the WSW (250 degrees) at 8 MPH (7 knots; 3.6 m/s)
Visibility: 8 sm ( 13 km)
Ceiling:at least 12,000 feet AGL
Clouds: scattered clouds at 8000 feet AGL
QC Flag:automated observation with no human augmentation; SOME DATA ABOVE MAY BE INACCURATE!!!"$" is an indication the sensor requires maintenance.
Text:KGDP 301151Z AUTO 23004KT 9SM CLR 21/12 A3028 RMK AO2 SLP170 T02060122 10228 20200 56006 $
Temperature: 20.6°C ( 69°F)
Dewpoint: 12.2°C ( 54°F) [RH = 59%]
Pressure (altimeter):30.28 inches Hg (1025.5 mb) [Sea level pressure: 1017.0 mb]
Winds:from the SW (230 degrees) at 5 MPH (4 knots; 2.1 m/s)
Visibility: 9 sm ( 14 km)
Ceiling:at least 12,000 feet AGL
Clouds:sky clear below 12,000 feet AGL
QC Flag:automated observation with no human augmentation; SOME DATA ABOVE MAY BE INACCURATE!!!"$" is an indication the sensor requires maintenance.
Text:KGDP 301051Z AUTO 23006KT 10SM CLR 21/12 A3029 RMK AO2 SLP171 T02110122 $
Temperature: 21.1°C ( 70°F)
Dewpoint: 12.2°C ( 54°F) [RH = 57%]
Pressure (altimeter):30.29 inches Hg (1025.8 mb) [Sea level pressure: 1017.1 mb]
Winds:from the SW (230 degrees) at 7 MPH (6 knots; 3.1 m/s)
Visibility:10 or more sm (16+ km)
Ceiling:at least 12,000 feet AGL
Clouds:sky clear below 12,000 feet AGL
QC Flag:automated observation with no human augmentation; SOME DATA ABOVE MAY BE INACCURATE!!!"$" is an indication the sensor requires maintenance.
Text:KGDP 300951Z AUTO 22009KT 10SM CLR 21/12 A3029 RMK AO2 SLP172 T02110122 $
Temperature: 21.1°C ( 70°F)
Dewpoint: 12.2°C ( 54°F) [RH = 57%]
Pressure (altimeter):30.29 inches Hg (1025.8 mb) [Sea level pressure: 1017.2 mb]
Winds:from the SW (220 degrees) at 10 MPH (9 knots; 4.6 m/s)
Visibility:10 or more sm (16+ km)
Ceiling:at least 12,000 feet AGL
Clouds:sky clear below 12,000 feet AGL
QC Flag:automated observation with no human augmentation; SOME DATA ABOVE MAY BE INACCURATE!!!"$" is an indication the sensor requires maintenance.
Text:KGDP 300851Z AUTO 17009KT 10SM CLR 22/12 A3030 RMK AO2 SLP177 T02170122 58006 $
Temperature: 21.7°C ( 71°F)
Dewpoint: 12.2°C ( 54°F) [RH = 55%]
Pressure (altimeter):30.30 inches Hg (1026.2 mb) [Sea level pressure: 1017.7 mb]
Winds:from the S (170 degrees) at 10 MPH (9 knots; 4.6 m/s)
Visibility:10 or more sm (16+ km)
Ceiling:at least 12,000 feet AGL
Clouds:sky clear below 12,000 feet AGL
QC Flag:automated observation with no human augmentation; SOME DATA ABOVE MAY BE INACCURATE!!!"$" is an indication the sensor requires maintenance.
Text:KGDP 300751Z AUTO 15009KT 9SM CLR 22/13 A3031 RMK AO2 SLP181 T02170128 $
Temperature: 21.7°C ( 71°F)
Dewpoint: 12.8°C ( 55°F) [RH = 57%]
Pressure (altimeter):30.31 inches Hg (1026.5 mb) [Sea level pressure: 1018.1 mb]
Winds:from the SSE (150 degrees) at 10 MPH (9 knots; 4.6 m/s)
Visibility: 9 sm ( 14 km)
Ceiling:at least 12,000 feet AGL
Clouds:sky clear below 12,000 feet AGL
QC Flag:automated observation with no human augmentation; SOME DATA ABOVE MAY BE INACCURATE!!!"$" is an indication the sensor requires maintenance.
Text:KGDP 300651Z AUTO 07009KT 10SM CLR 22/12 A3032 RMK AO2 SLP182 T02220122 402720172 $
Temperature: 22.2°C ( 72°F)
Dewpoint: 12.2°C ( 54°F) [RH = 53%]
Pressure (altimeter):30.32 inches Hg (1026.8 mb) [Sea level pressure: 1018.2 mb]
Winds:from the ENE (70 degrees) at 10 MPH (9 knots; 4.6 m/s)
Visibility:10 or more sm (16+ km)
Ceiling:at least 12,000 feet AGL
Clouds:sky clear below 12,000 feet AGL
QC Flag:automated observation with no human augmentation; SOME DATA ABOVE MAY BE INACCURATE!!!"$" is an indication the sensor requires maintenance.
Text:KGDP 300551Z AUTO 06009KT 10SM CLR 22/13 A3032 RMK AO2 SLP186 T02220128 10272 20217 51012 $
Temperature: 22.2°C ( 72°F)
Dewpoint: 12.8°C ( 55°F) [RH = 55%]
Pressure (altimeter):30.32 inches Hg (1026.8 mb) [Sea level pressure: 1018.6 mb]
Winds:from the ENE (60 degrees) at 10 MPH (9 knots; 4.6 m/s)
Visibility:10 or more sm (16+ km)
Ceiling:at least 12,000 feet AGL
Clouds:sky clear below 12,000 feet AGL
QC Flag:automated observation with no human augmentation; SOME DATA ABOVE MAY BE INACCURATE!!!"$" is an indication the sensor requires maintenance.
Text:KGDP 300451Z AUTO 06013KT 10SM CLR 22/13 A3032 RMK AO2 SLP189 T02170133 $
Temperature: 21.7°C ( 71°F)
Dewpoint: 13.3°C ( 56°F) [RH = 59%]
Pressure (altimeter):30.32 inches Hg (1026.8 mb) [Sea level pressure: 1018.9 mb]
Winds:from the ENE (60 degrees) at 15 MPH (13 knots; 6.7 m/s)
Visibility:10 or more sm (16+ km)
Ceiling:at least 12,000 feet AGL
Clouds:sky clear below 12,000 feet AGL
QC Flag:automated observation with no human augmentation; SOME DATA ABOVE MAY BE INACCURATE!!!"$" is an indication the sensor requires maintenance.
Text:KGDP 300351Z AUTO 06012KT 9SM CLR 23/14 A3031 RMK AO2 SLP185 T02280139 $
Temperature: 22.8°C ( 73°F)
Dewpoint: 13.9°C ( 57°F) [RH = 57%]
Pressure (altimeter):30.31 inches Hg (1026.5 mb) [Sea level pressure: 1018.5 mb]
Winds:from the ENE (60 degrees) at 14 MPH (12 knots; 6.2 m/s)
Visibility: 9 sm ( 14 km)
Ceiling:at least 12,000 feet AGL
Clouds:sky clear below 12,000 feet AGL
QC Flag:automated observation with no human augmentation; SOME DATA ABOVE MAY BE INACCURATE!!!"$" is an indication the sensor requires maintenance.
Text:KGDP 300251Z AUTO 07017KT 9SM CLR 23/14 A3028 RMK AO2 SLP176 T02330139 53002 $
Temperature: 23.3°C ( 74°F)
Dewpoint: 13.9°C ( 57°F) [RH = 56%]
Pressure (altimeter):30.28 inches Hg (1025.5 mb) [Sea level pressure: 1017.6 mb]
Winds:from the ENE (70 degrees) at 20 MPH (17 knots; 8.7 m/s)
Visibility: 9 sm ( 14 km)
Ceiling:at least 12,000 feet AGL
Clouds:sky clear below 12,000 feet AGL
QC Flag:automated observation with no human augmentation; SOME DATA ABOVE MAY BE INACCURATE!!!"$" is an indication the sensor requires maintenance.
Text:KGDP 300151Z AUTO 08016KT 8SM CLR 24/13 A3027 RMK AO2 SLP172 T02440133 $
Temperature: 24.4°C ( 76°F)
Dewpoint: 13.3°C ( 56°F) [RH = 50%]
Pressure (altimeter):30.27 inches Hg (1025.1 mb) [Sea level pressure: 1017.2 mb]
Winds:from the E (80 degrees) at 18 MPH (16 knots; 8.2 m/s)
Visibility: 8 sm ( 13 km)
Ceiling:at least 12,000 feet AGL
Clouds:sky clear below 12,000 feet AGL
QC Flag:automated observation with no human augmentation; SOME DATA ABOVE MAY BE INACCURATE!!!"$" is an indication the sensor requires maintenance.
Text:KGDP 300051Z AUTO 08013KT 9SM CLR 26/12 A3027 RMK AO2 SLP170 T02610117 $
Temperature: 26.1°C ( 79°F)
Dewpoint: 11.7°C ( 53°F) [RH = 41%]
Pressure (altimeter):30.27 inches Hg (1025.1 mb) [Sea level pressure: 1017.0 mb]
Winds:from the E (80 degrees) at 15 MPH (13 knots; 6.7 m/s)
Visibility: 9 sm ( 14 km)
Ceiling:at least 12,000 feet AGL
Clouds:sky clear below 12,000 feet AGL
QC Flag:automated observation with no human augmentation; SOME DATA ABOVE MAY BE INACCURATE!!!"$" is an indication the sensor requires maintenance.
Text:KGDP 292351Z AUTO 09010KT 9SM SCT065 27/12 A3028 RMK AO2 SLP172 T02670122 10272 20233 56016 $
Temperature: 26.7°C ( 80°F)
Dewpoint: 12.2°C ( 54°F) [RH = 41%]
Pressure (altimeter):30.28 inches Hg (1025.5 mb) [Sea level pressure: 1017.2 mb]
Winds:from the E (90 degrees) at 12 MPH (10 knots; 5.1 m/s)
Visibility: 9 sm ( 14 km)
Ceiling:at least 12,000 feet AGL
Clouds: scattered clouds at 6500 feet AGL
QC Flag:automated observation with no human augmentation; SOME DATA ABOVE MAY BE INACCURATE!!!"$" is an indication the sensor requires maintenance.
Text:KGDP 292251Z AUTO 08010KT 9SM CLR 27/10 A3029 RMK AO2 SLP179 T02670100 $
Temperature: 26.7°C ( 80°F)
Dewpoint: 10.0°C ( 50°F) [RH = 35%]
Pressure (altimeter):30.29 inches Hg (1025.8 mb) [Sea level pressure: 1017.9 mb]
Winds:from the E (80 degrees) at 12 MPH (10 knots; 5.1 m/s)
Visibility: 9 sm ( 14 km)
Ceiling:at least 12,000 feet AGL
Clouds:sky clear below 12,000 feet AGL
QC Flag:automated observation with no human augmentation; SOME DATA ABOVE MAY BE INACCURATE!!!"$" is an indication the sensor requires maintenance.
Text:KGDP 292151Z AUTO 08010KT 9SM CLR 27/12 A3031 RMK AO2 SLP187 T02720122 $
Temperature: 27.2°C ( 81°F)
Dewpoint: 12.2°C ( 54°F) [RH = 39%]
Pressure (altimeter):30.31 inches Hg (1026.5 mb) [Sea level pressure: 1018.7 mb]
Winds:from the E (80 degrees) at 12 MPH (10 knots; 5.1 m/s)
Visibility: 9 sm ( 14 km)
Ceiling:at least 12,000 feet AGL
Clouds:sky clear below 12,000 feet AGL
QC Flag:automated observation with no human augmentation; SOME DATA ABOVE MAY BE INACCURATE!!!"$" is an indication the sensor requires maintenance.
Text:KGDP 292051Z AUTO 07012G18KT 9SM CLR 26/12 A3033 RMK AO2 SLP193 T02610117 58017 $
Temperature: 26.1°C ( 79°F)
Dewpoint: 11.7°C ( 53°F) [RH = 41%]
Pressure (altimeter):30.33 inches Hg (1027.2 mb) [Sea level pressure: 1019.3 mb]
Winds:from the ENE (70 degrees) at 14 MPH (12 knots; 6.2 m/s) gusting to 21 MPH (18 knots; 9.3 m/s)
Visibility: 9 sm ( 14 km)
Ceiling:at least 12,000 feet AGL
Clouds:sky clear below 12,000 feet AGL
QC Flag:automated observation with no human augmentation; SOME DATA ABOVE MAY BE INACCURATE!!!"$" is an indication the sensor requires maintenance.
Text:KGDP 291951Z AUTO 08010G16KT 9SM CLR 26/12 A3036 RMK AO2 SLP202 T02610122 $
Temperature: 26.1°C ( 79°F)
Dewpoint: 12.2°C ( 54°F) [RH = 42%]
Pressure (altimeter):30.36 inches Hg (1028.2 mb) [Sea level pressure: 1020.2 mb]
Winds:from the E (80 degrees) at 12 MPH (10 knots; 5.1 m/s) gusting to 18 MPH (16 knots; 8.2 m/s)
Visibility: 9 sm ( 14 km)
Ceiling:at least 12,000 feet AGL
Clouds:sky clear below 12,000 feet AGL
QC Flag:automated observation with no human augmentation; SOME DATA ABOVE MAY BE INACCURATE!!!"$" is an indication the sensor requires maintenance.
Text:KGDP 291851Z AUTO 08010KT 9SM CLR 25/14 A3038 RMK AO2 SLP209 T02500139 $
Temperature: 25.0°C ( 77°F)
Dewpoint: 13.9°C ( 57°F) [RH = 50%]
Pressure (altimeter):30.38 inches Hg (1028.9 mb) [Sea level pressure: 1020.9 mb]
Winds:from the E (80 degrees) at 12 MPH (10 knots; 5.1 m/s)
Visibility: 9 sm ( 14 km)
Ceiling:at least 12,000 feet AGL
Clouds:sky clear below 12,000 feet AGL
QC Flag:automated observation with no human augmentation; SOME DATA ABOVE MAY BE INACCURATE!!!"$" is an indication the sensor requires maintenance.
Text:KGDP 291751Z AUTO 08012KT 9SM CLR 24/15 A3039 RMK AO2 SLP215 T02390150 10239 20183 58001 $
Temperature: 23.9°C ( 75°F)
Dewpoint: 15.0°C ( 59°F) [RH = 57%]
Pressure (altimeter):30.39 inches Hg (1029.2 mb) [Sea level pressure: 1021.5 mb]
Winds:from the E (80 degrees) at 14 MPH (12 knots; 6.2 m/s)
Visibility: 9 sm ( 14 km)
Ceiling:at least 12,000 feet AGL
Clouds:sky clear below 12,000 feet AGL
QC Flag:automated observation with no human augmentation; SOME DATA ABOVE MAY BE INACCURATE!!!"$" is an indication the sensor requires maintenance.
Text:KGDP 291651Z AUTO 05011KT 8SM CLR 23/16 A3039 RMK AO2 SLP220 T02280156 $
Temperature: 22.8°C ( 73°F)
Dewpoint: 15.6°C ( 60°F) [RH = 64%]
Pressure (altimeter):30.39 inches Hg (1029.2 mb) [Sea level pressure: 1022.0 mb]
Winds:from the NE (50 degrees) at 13 MPH (11 knots; 5.7 m/s)
Visibility: 8 sm ( 13 km)
Ceiling:at least 12,000 feet AGL
Clouds:sky clear below 12,000 feet AGL
QC Flag:automated observation with no human augmentation; SOME DATA ABOVE MAY BE INACCURATE!!!"$" is an indication the sensor requires maintenance.
Text:KGDP 291551Z AUTO 07015KT 9SM FEW090 21/15 A3039 RMK AO2 SLP222 T02110150 $
Temperature: 21.1°C ( 70°F)
Dewpoint: 15.0°C ( 59°F) [RH = 68%]
Pressure (altimeter):30.39 inches Hg (1029.2 mb) [Sea level pressure: 1022.2 mb]
Winds:from the ENE (70 degrees) at 17 MPH (15 knots; 7.7 m/s)
Visibility: 9 sm ( 14 km)
Ceiling:at least 12,000 feet AGL
Clouds: few clouds at 9000 feet AGL
QC Flag:automated observation with no human augmentation; SOME DATA ABOVE MAY BE INACCURATE!!!"$" is an indication the sensor requires maintenance.
Text:KGDP 291451Z AUTO 04010KT 9SM BKN110 21/14 A3039 RMK AO2 SLP219 T02110144 51011
Temperature: 21.1°C ( 70°F)
Dewpoint: 14.4°C ( 58°F) [RH = 66%]
Pressure (altimeter):30.39 inches Hg (1029.2 mb) [Sea level pressure: 1021.9 mb]
Winds:from the NE (40 degrees) at 12 MPH (10 knots; 5.1 m/s)
Visibility: 9 sm ( 14 km)
Ceiling:11000 feet AGL
Clouds: broken clouds at 11000 feet AGL
QC Flag:automated observation with no human augmentation
Text:KGDP 291351Z AUTO 09007KT 9SM SCT100 19/14 A3038 RMK AO2 SLP216 T01940139 $
Temperature: 19.4°C ( 67°F)
Dewpoint: 13.9°C ( 57°F) [RH = 71%]
Pressure (altimeter):30.38 inches Hg (1028.9 mb) [Sea level pressure: 1021.6 mb]
Winds:from the E (90 degrees) at 8 MPH (7 knots; 3.6 m/s)
Visibility: 9 sm ( 14 km)
Ceiling:at least 12,000 feet AGL
Clouds: scattered clouds at 10000 feet AGL
QC Flag:automated observation with no human augmentation; SOME DATA ABOVE MAY BE INACCURATE!!!"$" is an indication the sensor requires maintenance.
Text:KGDP 291251Z AUTO 24006KT 9SM OVC100 19/13 A3037 RMK AO2 SLP208 T01940128 $
Temperature: 19.4°C ( 67°F)
Dewpoint: 12.8°C ( 55°F) [RH = 66%]
Pressure (altimeter):30.37 inches Hg (1028.5 mb) [Sea level pressure: 1020.8 mb]
Winds:from the WSW (240 degrees) at 7 MPH (6 knots; 3.1 m/s)
Visibility: 9 sm ( 14 km)
Ceiling:10000 feet AGL
Clouds: overcast cloud deck at 10000 feet AGL
QC Flag:automated observation with no human augmentation; SOME DATA ABOVE MAY BE INACCURATE!!!"$" is an indication the sensor requires maintenance.
Text:KGDP 291151Z AUTO 05008KT 10SM CLR 18/13 A3035 RMK AO2 SLP206 T01830128 10189 20172 53004 $
Temperature: 18.3°C ( 65°F)
Dewpoint: 12.8°C ( 55°F) [RH = 70%]
Pressure (altimeter):30.35 inches Hg (1027.9 mb) [Sea level pressure: 1020.6 mb]
Winds:from the NE (50 degrees) at 9 MPH (8 knots; 4.1 m/s)
Visibility:10 or more sm (16+ km)
Ceiling:at least 12,000 feet AGL
Clouds:sky clear below 12,000 feet AGL
QC Flag:automated observation with no human augmentation; SOME DATA ABOVE MAY BE INACCURATE!!!"$" is an indication the sensor requires maintenance.